Time;durP1;ratioP1;P1;durP2;ratioP2;P2;SDS_P1;SDS_P2;PMS_P1;PMS_P2;Temp;Humidity;BMP_temperature;BMP_pressure;BME280_temperature;BME280_humidity;BME280_pressure;Samples;Min_cycle;Max_cycle;Signal;HPM_P1;HPM_P2
2022/03/26 00:00:23;;;;;;;16.88;7.07;;;;;;;;;;5093921;28;20115;-37
2022/03/26 00:02:50;;;;;;;15.80;7.40;;;;;;;;;;5093761;28;20068;-37
2022/03/26 00:05:18;;;;;;;15.90;8.25;;;;;;;;;;5093726;28;20012;-37
2022/03/26 00:07:44;;;;;;;13.02;7.13;;;;;;;;;;5093849;28;20179;-37
2022/03/26 00:10:10;;;;;;;13.25;7.03;;;;;;;;;;5093863;28;20493;-37
2022/03/26 00:12:36;;;;;;;11.20;6.63;;;;;;;;;;5093539;28;20433;-37
2022/03/26 00:15:02;;;;;;;13.13;6.68;;;;;;;;;;5093518;28;20027;-37
2022/03/26 00:17:27;;;;;;;13.18;7.20;;;;;;;;;;5092324;28;20078;-37
2022/03/26 00:19:53;;;;;;;16.05;7.57;;;;;;;;;;5093459;28;20453;-37
2022/03/26 00:22:18;;;;;;;13.43;8.25;;;;;;;;;;5093306;28;20534;-37
2022/03/26 00:24:45;;;;;;;15.95;6.75;;;;;;;;;;5093349;28;20116;-37
2022/03/26 00:27:11;;;;;;;13.50;6.50;;;;;;;;;;5093289;28;20103;-38
2022/03/26 00:29:37;;;;;;;14.95;7.75;;;;;;;;;;5093194;28;20102;-37
2022/03/26 00:32:04;;;;;;;14.68;7.55;;;;;;;;;;5093114;28;20427;-37
2022/03/26 00:34:30;;;;;;;17.15;8.48;;;;;;;;;;5091932;28;20027;-37
2022/03/26 00:36:56;;;;;;;17.45;7.85;;;;;;;;;;5093036;28;20104;-37
2022/03/26 00:39:22;;;;;;;20.08;8.05;;;;;;;;;;5092996;28;20020;-37
2022/03/26 00:41:48;;;;;;;17.48;7.40;;;;;;;;;;5092911;28;20024;-37
2022/03/26 00:44:13;;;;;;;15.95;7.95;;;;;;;;;;5093128;28;20113;-38
2022/03/26 00:46:39;;;;;;;17.92;8.40;;;;;;;;;;5093199;28;20032;-37
2022/03/26 00:49:04;;;;;;;16.00;7.63;;;;;;;;;;5092757;28;20522;-37
2022/03/26 00:51:29;;;;;;;11.75;7.03;;;;;;;;;;5091151;28;20077;-37
2022/03/26 00:53:55;;;;;;;14.82;6.80;;;;;;;;;;5093076;28;20110;-37
2022/03/26 00:56:21;;;;;;;18.65;8.45;;;;;;;;;;5092741;28;20525;-37
2022/03/26 00:58:46;;;;;;;13.73;7.10;;;;;;;;;;5092531;28;20027;-37
2022/03/26 01:01:12;;;;;;;17.63;8.10;;;;;;;;;;5092600;28;20043;-37
2022/03/26 01:03:37;;;;;;;15.45;6.25;;;;;;;;;;5092609;28;20020;-38
2022/03/26 01:06:03;;;;;;;16.58;9.00;;;;;;;;;;5092474;28;20035;-37
2022/03/26 01:08:29;;;;;;;20.38;8.63;;;;;;;;;;5092451;28;20038;-37
2022/03/26 01:10:54;;;;;;;15.93;8.43;;;;;;;;;;5092730;28;20490;-38
2022/03/26 01:13:20;;;;;;;16.08;8.30;;;;;;;;;;5092167;28;20478;-38
2022/03/26 01:15:45;;;;;;;18.85;8.23;;;;;;;;;;5092462;28;20063;-37
2022/03/26 01:18:11;;;;;;;22.67;9.23;;;;;;;;;;5092421;28;20377;-37
2022/03/26 01:20:36;;;;;;;18.40;8.30;;;;;;;;;;5092148;28;20043;-37
2022/03/26 01:23:02;;;;;;;18.88;8.77;;;;;;;;;;5092424;28;20123;-40
2022/03/26 01:25:28;;;;;;;18.30;7.70;;;;;;;;;;5092228;28;20470;-38
2022/03/26 01:27:53;;;;;;;15.32;8.98;;;;;;;;;;5092162;28;20073;-38
2022/03/26 01:30:18;;;;;;;19.08;8.70;;;;;;;;;;5091999;28;20064;-39
2022/03/26 01:32:44;;;;;;;30.02;8.75;;;;;;;;;;5092039;28;20024;-37
2022/03/26 01:35:10;;;;;;;17.23;9.35;;;;;;;;;;5090636;28;20121;-37
2022/03/26 01:37:36;;;;;;;16.15;9.45;;;;;;;;;;5092060;28;20082;-37
2022/03/26 01:40:02;;;;;;;17.30;7.63;;;;;;;;;;5091831;28;20036;-37
2022/03/26 01:42:27;;;;;;;22.40;8.27;;;;;;;;;;5092075;28;20035;-37
2022/03/26 01:44:52;;;;;;;21.83;9.75;;;;;;;;;;5091960;28;20111;-37
2022/03/26 01:47:18;;;;;;;13.98;8.05;;;;;;;;;;5091819;28;20027;-38
2022/03/26 01:49:44;;;;;;;15.40;8.55;;;;;;;;;;5091858;28;20074;-37
2022/03/26 01:52:10;;;;;;;14.20;7.35;;;;;;;;;;5091327;28;20083;-37
2022/03/26 01:54:38;;;;;;;14.95;8.15;;;;;;;;;;5092052;28;20461;-38
2022/03/26 01:57:03;;;;;;;17.45;9.38;;;;;;;;;;5091906;28;20032;-38
2022/03/26 01:59:29;;;;;;;16.63;8.75;;;;;;;;;;5091595;28;20079;-38
2022/03/26 02:01:55;;;;;;;16.02;8.13;;;;;;;;;;5090284;28;20059;-37
2022/03/26 02:04:24;;;;;;;14.48;7.68;;;;;;;;;;5091104;28;20427;-37
2022/03/26 02:06:50;;;;;;;14.88;8.10;;;;;;;;;;5091925;28;20390;-37
2022/03/26 02:09:15;;;;;;;17.13;7.45;;;;;;;;;;5091489;28;20028;-37
2022/03/26 02:11:43;;;;;;;18.50;9.68;;;;;;;;;;5091785;28;20136;-37
2022/03/26 02:14:09;;;;;;;13.93;6.93;;;;;;;;;;5091523;28;20020;-37
2022/03/26 02:16:36;;;;;;;16.33;8.32;;;;;;;;;;5091385;28;20024;-37
2022/03/26 02:19:02;;;;;;;17.90;8.25;;;;;;;;;;5091294;28;20044;-38
2022/03/26 02:21:28;;;;;;;17.80;9.68;;;;;;;;;;5090391;28;20286;-37
2022/03/26 02:23:53;;;;;;;15.82;7.85;;;;;;;;;;5091358;28;20538;-37
2022/03/26 02:26:25;;;;;;;15.30;8.65;;;;;;;;;;5091268;28;20478;-37
2022/03/26 02:28:54;;;;;;;22.03;7.70;;;;;;;;;;5091306;28;20035;-38
2022/03/26 02:31:20;;;;;;;13.57;7.95;;;;;;;;;;5091152;28;20256;-37
2022/03/26 02:33:46;;;;;;;22.70;8.57;;;;;;;;;;5091293;28;20036;-37
2022/03/26 02:36:12;;;;;;;41.75;10.70;;;;;;;;;;5091216;28;20023;-37
2022/03/26 02:38:38;;;;;;;19.27;8.15;;;;;;;;;;5091040;28;20040;-37
2022/03/26 02:41:04;;;;;;;18.73;8.35;;;;;;;;;;5091111;28;20020;-37
2022/03/26 02:43:29;;;;;;;14.10;8.88;;;;;;;;;;5091458;28;20381;-37
2022/03/26 02:45:55;;;;;;;15.95;8.50;;;;;;;;;;5091112;28;20141;-37
2022/03/26 02:48:20;;;;;;;15.07;8.10;;;;;;;;;;5091406;28;20024;-37
2022/03/26 02:50:46;;;;;;;19.48;8.98;;;;;;;;;;5091061;28;20024;-37
2022/03/26 02:53:12;;;;;;;17.92;8.43;;;;;;;;;;5090783;28;20044;-37
2022/03/26 02:55:38;;;;;;;19.38;8.38;;;;;;;;;;5091333;28;20025;-37
2022/03/26 02:58:04;;;;;;;13.00;7.25;;;;;;;;;;5090956;28;20024;-37
2022/03/26 03:00:30;;;;;;;16.77;7.35;;;;;;;;;;5091003;28;20059;-37
2022/03/26 03:02:56;;;;;;;13.32;7.45;;;;;;;;;;5091278;28;20052;-37
2022/03/26 03:05:21;;;;;;;22.60;9.82;;;;;;;;;;5090850;28;20107;-38
2022/03/26 03:07:48;;;;;;;19.85;8.75;;;;;;;;;;5091274;28;20380;-37
2022/03/26 03:10:15;;;;;;;16.27;7.93;;;;;;;;;;5090833;28;20020;-38
2022/03/26 03:12:44;;;;;;;21.23;9.85;;;;;;;;;;5090863;28;20025;-37
2022/03/26 03:15:11;;;;;;;20.00;8.10;;;;;;;;;;5093183;28;20038;-37
2022/03/26 03:17:40;;;;;;;18.73;8.60;;;;;;;;;;5094922;28;20022;-37
2022/03/26 03:20:06;;;;;;;13.07;7.90;;;;;;;;;;5094437;28;20792;-38
2022/03/26 03:22:32;;;;;;;16.85;8.27;;;;;;;;;;5094859;28;20462;-37
2022/03/26 03:24:57;;;;;;;17.40;6.60;;;;;;;;;;5094636;28;20070;-37
2022/03/26 03:27:23;;;;;;;16.98;8.73;;;;;;;;;;5094688;28;20382;-37
2022/03/26 03:29:49;;;;;;;16.63;8.57;;;;;;;;;;5094385;28;20028;-37
2022/03/26 03:32:14;;;;;;;15.40;8.07;;;;;;;;;;5094367;28;20032;-37
2022/03/26 03:34:40;;;;;;;17.33;8.77;;;;;;;;;;5094387;28;20043;-37
2022/03/26 03:37:06;;;;;;;16.90;7.18;;;;;;;;;;5094260;28;20035;-37
2022/03/26 03:39:31;;;;;;;14.82;8.57;;;;;;;;;;5094215;28;20036;-37
2022/03/26 03:41:57;;;;;;;18.77;9.10;;;;;;;;;;5094164;28;20111;-37
2022/03/26 03:44:22;;;;;;;19.23;8.40;;;;;;;;;;5094167;28;20478;-38
2022/03/26 03:46:48;;;;;;;15.57;7.50;;;;;;;;;;5094107;28;20024;-37
2022/03/26 03:49:13;;;;;;;19.52;9.05;;;;;;;;;;5094302;28;20020;-37
2022/03/26 03:51:39;;;;;;;13.38;7.70;;;;;;;;;;5093871;28;20032;-37
2022/03/26 03:54:05;;;;;;;20.20;8.57;;;;;;;;;;5092748;28;20035;-37
2022/03/26 03:56:31;;;;;;;11.98;6.97;;;;;;;;;;5094215;28;20047;-37
2022/03/26 03:58:56;;;;;;;15.35;7.85;;;;;;;;;;5092516;28;20514;-37
2022/03/26 04:01:22;;;;;;;20.25;7.85;;;;;;;;;;5094027;28;20069;-37
2022/03/26 04:03:48;;;;;;;15.73;6.93;;;;;;;;;;5093755;28;20047;-38
2022/03/26 04:06:13;;;;;;;17.92;7.93;;;;;;;;;;5093751;28;20081;-37
2022/03/26 04:08:39;;;;;;;18.35;9.05;;;;;;;;;;5093791;28;20119;-38
2022/03/26 04:11:04;;;;;;;18.85;7.43;;;;;;;;;;5093540;28;20429;-38
2022/03/26 04:13:30;;;;;;;19.70;7.43;;;;;;;;;;5093886;28;20428;-37
2022/03/26 04:15:55;;;;;;;13.80;8.50;;;;;;;;;;5093589;28;20024;-38
2022/03/26 04:18:21;;;;;;;17.25;8.00;;;;;;;;;;5093615;28;20040;-37
2022/03/26 04:20:46;;;;;;;17.27;8.05;;;;;;;;;;5093759;28;20382;-37
2022/03/26 04:23:12;;;;;;;18.02;7.97;;;;;;;;;;5093343;28;20024;-37
2022/03/26 04:25:38;;;;;;;16.40;8.40;;;;;;;;;;5091475;28;20035;-37
2022/03/26 04:28:04;;;;;;;16.30;8.27;;;;;;;;;;5093334;28;20016;-37
2022/03/26 04:30:29;;;;;;;20.63;8.10;;;;;;;;;;5092305;28;20035;-37
2022/03/26 04:32:55;;;;;;;17.20;8.30;;;;;;;;;;5093140;28;20054;-37
2022/03/26 04:35:21;;;;;;;15.95;7.72;;;;;;;;;;5093245;28;20032;-37
2022/03/26 04:37:46;;;;;;;22.92;9.43;;;;;;;;;;5093194;28;20052;-37
2022/03/26 04:40:13;;;;;;;15.57;8.45;;;;;;;;;;5092847;28;20043;-37
2022/03/26 04:42:41;;;;;;;20.80;7.65;;;;;;;;;;5093271;28;20016;-38
2022/03/26 04:45:07;;;;;;;14.48;7.07;;;;;;;;;;5092925;28;20028;-37
2022/03/26 04:47:33;;;;;;;13.18;6.88;;;;;;;;;;5093280;28;20012;-38
2022/03/26 04:49:59;;;;;;;20.30;8.90;;;;;;;;;;5092899;28;20382;-37
2022/03/26 04:52:24;;;;;;;19.98;8.90;;;;;;;;;;5092717;28;20048;-41
2022/03/26 04:54:50;;;;;;;16.63;7.80;;;;;;;;;;5091598;28;20449;-38
2022/03/26 04:57:17;;;;;;;15.55;7.00;;;;;;;;;;5092736;28;20046;-38
2022/03/26 04:59:44;;;;;;;17.88;9.43;;;;;;;;;;5091698;28;20051;-37
2022/03/26 05:02:09;;;;;;;13.77;6.72;;;;;;;;;;5092665;28;20027;-37
2022/03/26 05:04:35;;;;;;;23.55;8.32;;;;;;;;;;5091476;28;20402;-37
2022/03/26 05:07:45;;;;;;;13.85;6.50;;;;;;;;;;5091293;28;20016;-38
2022/03/26 05:09:46;;;;;;;17.33;6.82;;;;;;;;;;5092416;28;20024;-37
2022/03/26 05:12:12;;;;;;;18.48;8.35;;;;;;;;;;5092346;28;20038;-37
2022/03/26 05:14:37;;;;;;;14.70;7.15;;;;;;;;;;5092448;28;20071;-39
2022/03/26 05:17:03;;;;;;;15.18;7.72;;;;;;;;;;5092467;28;20020;-37
2022/03/26 05:19:29;;;;;;;16.35;8.05;;;;;;;;;;5092535;28;20039;-37
2022/03/26 05:21:55;;;;;;;14.77;7.25;;;;;;;;;;5092205;28;20028;-37
2022/03/26 05:24:20;;;;;;;20.73;9.35;;;;;;;;;;5092241;28;20505;-37
2022/03/26 05:26:46;;;;;;;13.05;8.43;;;;;;;;;;5092483;28;20027;-38
2022/03/26 05:29:12;;;;;;;14.10;7.93;;;;;;;;;;5090750;28;20474;-37
2022/03/26 05:31:41;;;;;;;16.77;7.70;;;;;;;;;;5090896;28;20027;-38
2022/03/26 05:34:06;;;;;;;15.10;8.02;;;;;;;;;;5092348;28;20402;-37
2022/03/26 05:36:32;;;;;;;16.80;7.28;;;;;;;;;;5092316;28;20107;-37
2022/03/26 05:38:57;;;;;;;14.93;7.45;;;;;;;;;;5092119;28;20067;-37
2022/03/26 05:41:23;;;;;;;14.20;7.78;;;;;;;;;;5091903;28;20096;-37
2022/03/26 05:43:49;;;;;;;17.85;7.93;;;;;;;;;;5091857;28;20024;-37
2022/03/26 05:46:15;;;;;;;15.02;7.63;;;;;;;;;;5092127;28;20508;-38
2022/03/26 05:48:41;;;;;;;13.25;6.32;;;;;;;;;;5091970;28;20118;-37
2022/03/26 05:51:07;;;;;;;16.08;7.90;;;;;;;;;;5091595;28;20135;-37
2022/03/26 05:53:32;;;;;;;12.88;6.40;;;;;;;;;;5091669;28;20056;-37
2022/03/26 05:55:58;;;;;;;18.58;7.70;;;;;;;;;;5091743;28;20075;-38
2022/03/26 05:58:25;;;;;;;13.73;6.65;;;;;;;;;;5091539;28;20464;-37
2022/03/26 06:00:51;;;;;;;18.70;9.10;;;;;;;;;;5091656;28;20024;-38
2022/03/26 06:03:19;;;;;;;21.00;8.57;;;;;;;;;;5091827;28;20030;-37
2022/03/26 06:05:48;;;;;;;17.88;7.20;;;;;;;;;;5091636;28;20023;-37
2022/03/26 06:08:15;;;;;;;18.48;7.00;;;;;;;;;;5091511;28;20107;-37
2022/03/26 06:10:40;;;;;;;20.63;7.93;;;;;;;;;;5091489;28;20047;-37
2022/03/26 06:13:06;;;;;;;19.10;7.07;;;;;;;;;;5091598;28;20127;-37
2022/03/26 06:15:34;;;;;;;13.65;7.40;;;;;;;;;;5091458;28;20111;-37
2022/03/26 06:18:01;;;;;;;13.32;6.03;;;;;;;;;;5090161;28;20052;-37
2022/03/26 06:20:27;;;;;;;15.55;7.57;;;;;;;;;;5091295;28;20054;-37
2022/03/26 06:22:52;;;;;;;13.50;6.68;;;;;;;;;;5091449;28;20493;-37
2022/03/26 06:25:20;;;;;;;13.88;7.13;;;;;;;;;;5091601;28;20042;-37
2022/03/26 06:27:49;;;;;;;22.02;7.03;;;;;;;;;;5091361;28;20468;-37
2022/03/26 06:30:15;;;;;;;14.65;6.30;;;;;;;;;;5091517;28;20027;-37
2022/03/26 06:32:40;;;;;;;15.57;7.25;;;;;;;;;;5091250;28;20077;-37
2022/03/26 06:35:06;;;;;;;17.40;6.95;;;;;;;;;;5089996;28;20462;-37
2022/03/26 06:37:32;;;;;;;18.20;7.90;;;;;;;;;;5091333;28;20040;-37
2022/03/26 06:39:58;;;;;;;19.15;8.65;;;;;;;;;;5091431;28;20057;-36
2022/03/26 06:42:25;;;;;;;18.45;8.85;;;;;;;;;;5091106;28;20568;-41
2022/03/26 06:44:58;;;;;;;13.82;7.20;;;;;;;;;;5091250;28;20030;-37
2022/03/26 06:47:33;;;;;;;14.10;5.68;;;;;;;;;;5091089;28;20458;-37
2022/03/26 06:49:59;;;;;;;15.90;7.93;;;;;;;;;;5093651;28;20102;-37
2022/03/26 06:52:25;;;;;;;21.52;8.23;;;;;;;;;;5094920;28;20177;-37
2022/03/26 06:54:51;;;;;;;17.25;7.45;;;;;;;;;;5095150;28;20107;-38
2022/03/26 06:57:17;;;;;;;14.20;6.45;;;;;;;;;;5095295;28;20430;-37
2022/03/26 06:59:42;;;;;;;14.85;7.72;;;;;;;;;;5093804;28;20032;-37
2022/03/26 07:02:08;;;;;;;14.40;7.60;;;;;;;;;;5093681;28;20022;-37
2022/03/26 07:04:34;;;;;;;16.90;8.35;;;;;;;;;;5095066;28;20035;-37
2022/03/26 07:07:00;;;;;;;12.50;6.65;;;;;;;;;;5094987;28;20371;-37
2022/03/26 07:09:26;;;;;;;16.77;8.80;;;;;;;;;;5094710;28;20032;-37
2022/03/26 07:11:52;;;;;;;16.33;7.00;;;;;;;;;;5094853;28;20016;-37
2022/03/26 07:14:19;;;;;;;11.52;6.57;;;;;;;;;;5093502;28;20393;-37
2022/03/26 07:16:45;;;;;;;13.32;6.85;;;;;;;;;;5094672;28;20069;-37
2022/03/26 07:19:11;;;;;;;20.58;8.20;;;;;;;;;;5094518;28;20443;-37
2022/03/26 07:21:37;;;;;;;19.17;7.88;;;;;;;;;;5094580;28;20070;-37
2022/03/26 07:24:04;;;;;;;11.48;6.05;;;;;;;;;;5094872;28;20055;-37
2022/03/26 07:26:29;;;;;;;15.15;6.95;;;;;;;;;;5094439;28;20097;-37
2022/03/26 07:28:56;;;;;;;15.88;7.15;;;;;;;;;;5094453;28;20034;-37
2022/03/26 07:31:26;;;;;;;16.15;7.40;;;;;;;;;;5094289;28;20012;-37
2022/03/26 07:33:58;;;;;;;13.13;5.88;;;;;;;;;;5094442;28;20070;-37
2022/03/26 07:36:25;;;;;;;13.73;6.85;;;;;;;;;;5094339;28;20028;-36
2022/03/26 07:38:51;;;;;;;17.67;7.20;;;;;;;;;;5094242;28;20031;-37
2022/03/26 07:41:21;;;;;;;20.92;7.30;;;;;;;;;;5094145;28;20024;-37
2022/03/26 07:43:50;;;;;;;16.15;8.10;;;;;;;;;;5094237;28;20111;-37
2022/03/26 07:46:19;;;;;;;13.32;6.70;;;;;;;;;;5092873;28;20132;-37
2022/03/26 07:48:45;;;;;;;15.10;7.10;;;;;;;;;;5094122;28;20470;-37
2022/03/26 07:51:11;;;;;;;14.38;6.65;;;;;;;;;;5093894;28;20449;-37
2022/03/26 07:53:37;;;;;;;17.15;7.50;;;;;;;;;;5093869;28;20100;-36
2022/03/26 07:56:04;;;;;;;13.98;6.55;;;;;;;;;;5094289;28;20376;-37
2022/03/26 07:58:30;;;;;;;13.05;5.55;;;;;;;;;;5093728;28;20420;-37
2022/03/26 08:00:56;;;;;;;14.85;6.43;;;;;;;;;;5092751;28;20043;-37
2022/03/26 08:03:22;;;;;;;14.88;7.50;;;;;;;;;;5092696;28;20149;-37
2022/03/26 08:05:48;;;;;;;20.23;7.35;;;;;;;;;;5093692;28;20473;-37
2022/03/26 08:08:15;;;;;;;15.65;7.22;;;;;;;;;;5093565;28;20024;-36
2022/03/26 08:10:41;;;;;;;19.38;7.00;;;;;;;;;;5092409;28;20382;-37
2022/03/26 08:13:06;;;;;;;11.70;5.97;;;;;;;;;;5093648;28;20012;-37
2022/03/26 08:15:32;;;;;;;16.80;7.22;;;;;;;;;;5093457;28;20032;-37
2022/03/26 08:18:02;;;;;;;14.75;6.93;;;;;;;;;;5093691;28;20091;-37
2022/03/26 08:20:38;;;;;;;17.83;6.80;;;;;;;;;;5093392;28;20392;-37
2022/03/26 08:23:07;;;;;;;12.77;6.53;;;;;;;;;;5093442;28;20020;-38
2022/03/26 08:28:18;;;;;;;14.35;6.25;;;;;;;;;;5093324;28;20058;-37
2022/03/26 08:30:44;;;;;;;15.60;6.70;;;;;;;;;;5093287;28;20028;-37
2022/03/26 08:33:10;;;;;;;12.52;6.68;;;;;;;;;;5093179;28;20097;-37
2022/03/26 08:35:38;;;;;;;13.13;6.20;;;;;;;;;;5093137;28;20123;-37
2022/03/26 08:38:05;;;;;;;11.63;6.57;;;;;;;;;;5093234;28;20024;-37
2022/03/26 08:40:30;;;;;;;15.60;6.28;;;;;;;;;;5092905;28;20024;-37
2022/03/26 08:42:58;;;;;;;16.77;6.93;;;;;;;;;;5093065;28;20020;-37
2022/03/26 08:45:28;;;;;;;17.95;6.63;;;;;;;;;;5093296;28;20043;-37
2022/03/26 08:47:54;;;;;;;13.32;6.78;;;;;;;;;;5092971;28;20032;-37
2022/03/26 08:50:21;;;;;;;16.95;7.45;;;;;;;;;;5092810;28;20024;-37
2022/03/26 08:52:47;;;;;;;12.77;6.07;;;;;;;;;;5092631;28;20090;-37
2022/03/26 08:55:17;;;;;;;13.93;6.70;;;;;;;;;;5092689;28;20386;-37
2022/03/26 08:57:43;;;;;;;14.30;6.68;;;;;;;;;;5091694;28;20107;-37
2022/03/26 09:00:10;;;;;;;11.68;5.53;;;;;;;;;;5092565;28;20077;-37
2022/03/26 09:02:40;;;;;;;9.32;5.38;;;;;;;;;;5092595;28;20024;-37
2022/03/26 09:05:06;;;;;;;12.30;5.65;;;;;;;;;;5092657;28;20046;-37
2022/03/26 09:07:36;;;;;;;14.80;5.47;;;;;;;;;;5092478;28;20051;-37
2022/03/26 09:10:03;;;;;;;12.40;5.78;;;;;;;;;;5092805;28;20036;-37
2022/03/26 09:12:29;;;;;;;10.32;5.38;;;;;;;;;;5092070;28;20060;-37
2022/03/26 09:14:55;;;;;;;8.18;5.07;;;;;;;;;;5092513;28;20028;-37
2022/03/26 09:17:21;;;;;;;12.43;5.03;;;;;;;;;;5092265;28;20031;-37
2022/03/26 09:19:47;;;;;;;13.50;6.40;;;;;;;;;;5074540;28;20504;-37
2022/03/26 09:22:13;;;;;;;10.43;5.97;;;;;;;;;;5092465;28;20397;-37
2022/03/26 09:24:38;;;;;;;8.98;5.38;;;;;;;;;;5092190;28;20056;-37
2022/03/26 09:27:04;;;;;;;13.00;5.32;;;;;;;;;;5092314;28;20028;-37
2022/03/26 09:29:30;;;;;;;8.60;4.18;;;;;;;;;;5092107;28;20020;-37
2022/03/26 09:31:56;;;;;;;13.27;6.43;;;;;;;;;;5092104;28;20035;-37
2022/03/26 09:34:25;;;;;;;11.93;5.32;;;;;;;;;;5091003;28;20069;-37
2022/03/26 09:36:53;;;;;;;11.15;6.70;;;;;;;;;;5092035;28;20102;-37
2022/03/26 09:39:19;;;;;;;14.15;5.65;;;;;;;;;;5091886;28;20424;-37
2022/03/26 09:41:45;;;;;;;9.02;5.20;;;;;;;;;;5091976;28;20024;-37
2022/03/26 09:44:11;;;;;;;12.45;5.65;;;;;;;;;;5091895;28;20012;-37
2022/03/26 09:46:37;;;;;;;10.90;7.05;;;;;;;;;;5092122;28;20054;-37
2022/03/26 09:49:03;;;;;;;10.35;5.60;;;;;;;;;;5091872;28;20028;-37
2022/03/26 09:51:30;;;;;;;14.73;6.05;;;;;;;;;;5090197;28;20393;-37
2022/03/26 09:53:56;;;;;;;11.10;5.63;;;;;;;;;;5091824;28;20031;-37
2022/03/26 09:56:23;;;;;;;14.88;6.55;;;;;;;;;;5091639;28;20028;-38
2022/03/26 09:58:53;;;;;;;10.43;4.97;;;;;;;;;;5091910;28;20081;-37
2022/03/26 10:01:22;;;;;;;11.15;5.97;;;;;;;;;;5091773;28;20024;-37
2022/03/26 10:04:06;;;;;;;12.43;4.95;;;;;;;;;;5091721;28;20017;-37
2022/03/26 10:06:32;;;;;;;10.85;6.00;;;;;;;;;;5091704;28;20137;-37
2022/03/26 10:09:01;;;;;;;10.32;5.55;;;;;;;;;;5091662;28;20012;-37
2022/03/26 10:11:31;;;;;;;13.13;6.72;;;;;;;;;;5091370;28;20478;-38
2022/03/26 10:13:56;;;;;;;11.70;5.45;;;;;;;;;;5091849;28;20378;-37
2022/03/26 10:16:21;;;;;;;9.77;6.22;;;;;;;;;;5091471;28;20031;-37
2022/03/26 10:18:47;;;;;;;14.02;5.90;;;;;;;;;;5091448;28;20027;-37
2022/03/26 10:21:20;;;;;;;11.15;5.40;;;;;;;;;;5091266;28;20024;-37
2022/03/26 10:23:49;;;;;;;13.90;5.60;;;;;;;;;;5090733;28;20040;-37
2022/03/26 10:26:16;;;;;;;13.35;5.65;;;;;;;;;;5091388;28;20026;-37
2022/03/26 10:28:43;;;;;;;11.77;5.35;;;;;;;;;;5091293;28;20024;-37
2022/03/26 10:34:04;;;;;;;9.50;5.35;;;;;;;;;;5091530;28;20046;-37
2022/03/26 10:36:30;;;;;;;19.63;6.70;;;;;;;;;;5091194;28;21111;-37
2022/03/26 10:38:57;;;;;;;13.55;6.55;;;;;;;;;;5091148;28;20501;-37
2022/03/26 10:41:22;;;;;;;17.33;5.32;;;;;;;;;;5091150;28;20058;-37
2022/03/26 10:44:05;;;;;;;13.30;6.20;;;;;;;;;;5089860;28;20024;-37
2022/03/26 10:46:30;;;;;;;9.55;4.90;;;;;;;;;;5091168;28;20036;-37
2022/03/26 10:49:03;;;;;;;10.25;5.82;;;;;;;;;;5091139;28;20024;-37
2022/03/26 10:51:34;;;;;;;12.18;4.65;;;;;;;;;;5091054;28;20028;-37
2022/03/26 10:54:07;;;;;;;13.32;6.45;;;;;;;;;;5091257;28;20462;-37
2022/03/26 10:56:33;;;;;;;12.00;6.30;;;;;;;;;;5091098;28;20024;-37
2022/03/26 10:59:02;;;;;;;9.85;5.57;;;;;;;;;;5089785;28;20028;-37
2022/03/26 11:01:28;;;;;;;9.45;5.13;;;;;;;;;;5091215;28;20043;-37
2022/03/26 11:03:54;;;;;;;11.00;5.65;;;;;;;;;;5090997;28;20493;-38
2022/03/26 11:06:23;;;;;;;14.40;5.05;;;;;;;;;;5090848;28;20032;-37
2022/03/26 11:08:59;;;;;;;10.20;5.38;;;;;;;;;;5091095;28;20036;-37
2022/03/26 11:11:26;;;;;;;10.77;5.93;;;;;;;;;;5090909;28;20055;-38
2022/03/26 11:13:53;;;;;;;8.98;4.88;;;;;;;;;;5091055;28;20369;-37
2022/03/26 11:16:45;;;;;;;9.65;5.45;;;;;;;;;;5090836;28;20496;-37
2022/03/26 11:19:20;;;;;;;11.57;5.72;;;;;;;;;;5059865;28;20048;-37
2022/03/26 11:21:52;;;;;;;11.32;6.22;;;;;;;;;;5090832;28;20031;-37
2022/03/26 11:24:41;;;;;;;12.97;5.87;;;;;;;;;;5074864;28;20109;-37
2022/03/26 11:27:10;;;;;;;16.73;6.15;;;;;;;;;;5070904;28;20032;-37
2022/03/26 11:29:51;;;;;;;10.05;4.90;;;;;;;;;;5070570;28;20054;-37
2022/03/26 11:32:20;;;;;;;10.48;4.72;;;;;;;;;;5070392;28;20024;-37
2022/03/26 11:34:49;;;;;;;12.57;6.50;;;;;;;;;;5070734;28;20066;-37
2022/03/26 11:37:27;;;;;;;11.07;6.30;;;;;;;;;;5074080;28;20803;-37
2022/03/26 11:39:53;;;;;;;11.65;5.20;;;;;;;;;;5073790;28;20032;-38
2022/03/26 11:42:33;;;;;;;5.03;3.67;;;;;;;;;;5074210;28;20100;-37
2022/03/26 11:51:03;;;;;;;11.50;4.97;;;;;;;;;;5073834;28;20047;-37
2022/03/26 11:53:34;;;;;;;12.73;6.10;;;;;;;;;;5073567;28;20159;-37
2022/03/26 11:56:04;;;;;;;13.98;5.22;;;;;;;;;;5073789;28;20606;-37
2022/03/26 11:58:34;;;;;;;9.45;4.85;;;;;;;;;;5073583;28;20382;-37
2022/03/26 12:01:02;;;;;;;12.18;4.75;;;;;;;;;;5072188;28;20433;-38
2022/03/26 12:03:29;;;;;;;10.30;4.78;;;;;;;;;;5073590;28;20012;-37
2022/03/26 12:08:40;;;;;;;7.60;4.50;;;;;;;;;;5073582;28;20024;-37
2022/03/26 12:11:06;;;;;;;10.60;6.00;;;;;;;;;;5073837;28;20374;-37
2022/03/26 12:13:34;;;;;;;9.82;5.10;;;;;;;;;;5073431;28;20040;-37
2022/03/26 12:16:00;;;;;;;10.35;5.55;;;;;;;;;;5073473;28;20021;-37
2022/03/26 12:18:37;;;;;;;11.00;5.78;;;;;;;;;;5073278;28;20032;-37
2022/03/26 12:21:09;;;;;;;13.27;5.70;;;;;;;;;;5073226;28;20368;-38
2022/03/26 12:23:36;;;;;;;10.80;5.68;;;;;;;;;;5073207;28;20029;-37
2022/03/26 12:26:01;;;;;;;12.73;5.88;;;;;;;;;;5073303;28;20024;-37
2022/03/26 12:28:37;;;;;;;11.02;4.90;;;;;;;;;;5073094;28;20111;-37
2022/03/26 12:31:05;;;;;;;12.73;6.57;;;;;;;;;;5073149;28;20028;-38
2022/03/26 12:33:57;;;;;;;15.35;5.80;;;;;;;;;;5073074;28;20013;-37
2022/03/26 12:36:23;;;;;;;10.23;6.07;;;;;;;;;;5070793;28;20114;-38
2022/03/26 12:38:49;;;;;;;7.15;5.00;;;;;;;;;;5071635;28;20044;-37
2022/03/26 12:41:16;;;;;;;11.60;6.15;;;;;;;;;;5072844;28;20024;-37
2022/03/26 12:43:51;;;;;;;9.07;5.57;;;;;;;;;;5072894;28;20021;-38
2022/03/26 12:46:20;;;;;;;13.20;6.90;;;;;;;;;;5072622;28;20030;-38
2022/03/26 12:48:45;;;;;;;10.55;5.85;;;;;;;;;;5072309;28;20021;-37
2022/03/26 12:51:11;;;;;;;15.50;6.53;;;;;;;;;;5072605;28;20034;-37
2022/03/26 12:53:38;;;;;;;9.07;5.68;;;;;;;;;;5071197;28;20119;-37
2022/03/26 12:56:07;;;;;;;13.82;6.75;;;;;;;;;;5071294;28;20032;-37
2022/03/26 13:01:19;;;;;;;10.95;5.80;;;;;;;;;;5072389;28;20039;-38
2022/03/26 13:03:46;;;;;;;10.32;5.75;;;;;;;;;;5072713;28;20072;-38
2022/03/26 13:06:13;;;;;;;9.77;6.03;;;;;;;;;;5087937;28;20060;-37
2022/03/26 13:08:46;;;;;;;10.88;5.00;;;;;;;;;;5072403;28;20112;-37
2022/03/26 13:11:15;;;;;;;14.15;6.88;;;;;;;;;;5072322;28;20055;-37
2022/03/26 13:13:44;;;;;;;13.40;5.80;;;;;;;;;;5072289;28;20032;-37
2022/03/26 13:16:14;;;;;;;9.52;5.70;;;;;;;;;;5072270;28;20017;-37
2022/03/26 13:18:55;;;;;;;12.20;6.85;;;;;;;;;;5072325;28;20044;-37
2022/03/26 13:21:22;;;;;;;11.02;6.15;;;;;;;;;;5072041;28;20035;-38
2022/03/26 13:24:07;;;;;;;9.90;5.82;;;;;;;;;;5070794;28;20366;-37
2022/03/26 13:26:39;;;;;;;15.32;6.15;;;;;;;;;;5072198;28;20024;-38
2022/03/26 13:29:08;;;;;;;14.32;6.20;;;;;;;;;;5072016;28;20501;-37
2022/03/26 13:31:34;;;;;;;10.85;6.55;;;;;;;;;;5071876;28;20120;-37
2022/03/26 13:34:08;;;;;;;8.73;6.10;;;;;;;;;;5070634;28;20029;-37
2022/03/26 13:36:34;;;;;;;14.73;6.40;;;;;;;;;;5071802;28;20113;-37
2022/03/26 13:39:02;;;;;;;11.10;5.57;;;;;;;;;;5071929;28;20459;-38
2022/03/26 13:41:28;;;;;;;11.50;6.47;;;;;;;;;;5071661;28;20056;-37
2022/03/26 13:43:56;;;;;;;12.18;6.13;;;;;;;;;;5071758;28;20051;-37
2022/03/26 13:46:23;;;;;;;21.33;7.68;;;;;;;;;;5071596;28;20078;-37
2022/03/26 13:48:53;;;;;;;10.85;5.93;;;;;;;;;;5071713;28;20028;-38
2022/03/26 13:51:32;;;;;;;11.23;5.70;;;;;;;;;;5071658;28;20028;-37
2022/03/26 13:54:03;;;;;;;7.18;4.97;;;;;;;;;;5071829;28;20048;-37
2022/03/26 13:56:32;;;;;;;11.40;6.55;;;;;;;;;;5071526;28;20048;-37
2022/03/26 13:59:02;;;;;;;13.02;6.50;;;;;;;;;;5070602;28;20031;-37
2022/03/26 14:01:28;;;;;;;11.85;5.93;;;;;;;;;;5071240;28;20548;-37
2022/03/26 14:03:57;;;;;;;12.18;6.15;;;;;;;;;;5071619;28;20021;-38
2022/03/26 14:06:23;;;;;;;12.35;6.68;;;;;;;;;;5071545;28;20028;-37
2022/03/26 14:08:49;;;;;;;10.68;5.57;;;;;;;;;;5071614;28;20071;-37
2022/03/26 14:11:18;;;;;;;10.27;5.70;;;;;;;;;;5071215;28;20040;-38
2022/03/26 14:13:44;;;;;;;13.77;5.80;;;;;;;;;;5071734;28;20020;-38
2022/03/26 14:16:10;;;;;;;11.35;5.10;;;;;;;;;;5070021;28;20036;-37
2022/03/26 14:18:36;;;;;;;12.68;6.78;;;;;;;;;;5071090;28;20024;-37
2022/03/26 14:21:02;;;;;;;11.85;6.57;;;;;;;;;;5071533;28;20032;-38
2022/03/26 14:23:28;;;;;;;13.98;6.70;;;;;;;;;;5071033;28;20021;-37
2022/03/26 14:25:54;;;;;;;12.30;5.93;;;;;;;;;;5071210;28;20505;-37
2022/03/26 14:28:23;;;;;;;11.25;6.47;;;;;;;;;;5071408;28;20021;-37
2022/03/26 14:30:50;;;;;;;12.98;6.22;;;;;;;;;;5070939;28;20034;-37
2022/03/26 14:33:16;;;;;;;8.95;5.28;;;;;;;;;;5071148;28;20111;-37
2022/03/26 14:35:47;;;;;;;13.23;7.15;;;;;;;;;;5071114;28;20075;-37
2022/03/26 14:38:14;;;;;;;11.02;6.72;;;;;;;;;;5071350;28;20491;-37
2022/03/26 14:40:51;;;;;;;14.88;7.13;;;;;;;;;;5071119;28;20417;-37
2022/03/26 14:43:17;;;;;;;12.80;6.60;;;;;;;;;;5070765;28;20032;-37
2022/03/26 14:45:45;;;;;;;14.13;6.22;;;;;;;;;;5070946;28;20568;-37
2022/03/26 14:48:12;;;;;;;10.68;7.18;;;;;;;;;;5071008;28;20497;-37